Time;durP1;ratioP1;P1;durP2;ratioP2;P2;SDS_P1;SDS_P2;PMS_P1;PMS_P2;Temp;Humidity;BMP_temperature;BMP_pressure;BME280_temperature;BME280_humidity;BME280_pressure;Samples;Min_cycle;Max_cycle;Signal;HPM_P1;HPM_P2
2022/11/23 00:00:06;;;;;;;12.47;1.70;;;;;;;-145.69;100.00;52701.84;5095119;28;20198;-82
2022/11/23 00:02:32;;;;;;;3.77;1.10;;;;;;;-145.69;100.00;52699.88;5094183;28;20193;-81
2022/11/23 00:04:59;;;;;;;8.10;1.40;;;;;;;-145.69;100.00;52737.50;5093247;28;20565;-81
2022/11/23 00:07:25;;;;;;;6.10;1.20;;;;;;;-145.69;100.00;52717.69;5095139;28;20202;-81
2022/11/23 00:09:52;;;;;;;5.90;1.10;;;;;;;-145.69;100.00;52713.72;5095113;28;20280;-80
2022/11/23 00:12:19;;;;;;;5.77;1.50;;;;;;;-145.69;100.00;52713.72;5094318;28;20297;-80
2022/11/23 00:14:46;;;;;;;4.87;1.40;;;;;;;-145.69;100.00;52755.31;5094161;28;20194;-80
2022/11/23 00:17:13;;;;;;;5.63;1.60;;;;;;;-145.69;100.00;52684.03;5093738;28;20253;-80
2022/11/23 00:19:40;;;;;;;6.10;1.83;;;;;;;-145.69;100.00;52676.09;5094570;28;20198;-81
2022/11/23 00:22:06;;;;;;;8.43;1.43;;;;;;;-145.69;100.00;52697.88;5095161;28;20198;-81
2022/11/23 00:24:33;;;;;;;5.43;1.43;;;;;;;-145.69;100.00;52686.00;5095114;28;20194;-81
2022/11/23 00:26:59;;;;;;;9.60;1.60;;;;;;;-145.69;100.00;52717.69;5094494;28;20205;-81
2022/11/23 00:29:26;;;;;;;5.57;1.70;;;;;;;-145.69;100.00;52711.75;5094621;28;20264;-81
2022/11/23 00:31:54;;;;;;;4.83;1.23;;;;;;;-145.69;100.00;52678.09;5094585;28;20209;-81
2022/11/23 00:34:20;;;;;;;9.23;2.03;;;;;;;-145.69;100.00;52735.50;5093991;28;20229;-80
2022/11/23 00:36:47;;;;;;;6.80;1.53;;;;;;;-145.69;100.00;52705.81;5094275;28;20230;-81
2022/11/23 00:39:13;;;;;;;9.33;1.60;;;;;;;-145.69;100.00;52707.78;5095154;28;20559;-81
2022/11/23 00:41:40;;;;;;;5.00;1.63;;;;;;;-145.69;100.00;52711.75;5094855;28;20194;-81
2022/11/23 00:44:06;;;;;;;8.27;1.53;;;;;;;-145.69;100.00;52733.53;5094505;28;20207;-81
2022/11/23 00:46:33;;;;;;;5.93;1.53;;;;;;;-145.69;100.00;52711.75;5094459;28;20204;-81
2022/11/23 00:49:01;;;;;;;5.47;1.40;;;;;;;-145.69;100.00;52693.94;5093998;28;20198;-83
2022/11/23 00:51:29;;;;;;;8.70;1.37;;;;;;;-145.69;100.00;52648.38;5093700;28;20199;-82
2022/11/23 00:53:56;;;;;;;9.90;2.10;;;;;;;-145.69;100.00;52697.88;5094548;28;20194;-81
2022/11/23 00:56:22;;;;;;;7.43;1.47;;;;;;;-145.69;100.00;52682.03;5093951;28;20226;-81
2022/11/23 00:58:50;;;;;;;14.97;1.57;;;;;;;-145.69;100.00;52737.50;5094161;28;20206;-82
2022/11/23 01:01:17;;;;;;;5.87;1.60;;;;;;;-145.69;100.00;52709.78;5094778;28;20202;-81
2022/11/23 01:03:46;;;;;;;10.17;1.50;;;;;;;-145.69;100.00;52735.50;5094406;28;20202;-81
2022/11/23 01:06:17;;;;;;;8.70;1.57;;;;;;;-145.69;100.00;52723.63;5091790;28;20559;-81
2022/11/23 01:08:48;;;;;;;9.00;1.57;;;;;;;-145.69;100.00;52693.94;5080232;28;20202;-81
2022/11/23 01:11:15;;;;;;;6.33;1.30;;;;;;;-145.69;100.00;52697.88;5074623;28;20211;-81
2022/11/23 01:13:42;;;;;;;5.90;1.37;;;;;;;-145.69;100.00;52713.72;5094204;28;20198;-81
2022/11/23 01:16:13;;;;;;;6.80;1.43;;;;;;;-145.69;100.00;52737.50;5088895;28;20588;-80
2022/11/23 01:18:40;;;;;;;11.23;1.77;;;;;;;-145.69;100.00;52725.63;5079153;28;20199;-80
2022/11/23 01:21:06;;;;;;;7.47;1.50;;;;;;;-145.69;100.00;52707.78;5072954;28;20649;-80
2022/11/23 01:23:35;;;;;;;4.47;1.23;;;;;;;-145.69;100.00;52713.72;5076169;28;20244;-81
2022/11/23 01:26:04;;;;;;;5.73;1.50;;;;;;;-145.69;100.00;52713.72;5093081;28;20205;-80
2022/11/23 01:28:31;;;;;;;11.53;1.53;;;;;;;-145.69;100.00;52745.41;5092894;28;20198;-80
2022/11/23 01:31:04;;;;;;;10.37;1.67;;;;;;;-145.69;100.00;52731.56;5093128;28;20202;-80
2022/11/23 01:33:30;;;;;;;4.73;1.50;;;;;;;-145.69;100.00;52674.13;5093000;28;20237;-80
2022/11/23 01:35:57;;;;;;;17.43;1.77;;;;;;;-145.69;100.00;52686.00;5092710;28;20194;-81
2022/11/23 01:38:24;;;;;;;3.53;1.63;;;;;;;-145.69;100.00;52713.72;5092890;28;20195;-80
2022/11/23 01:40:51;;;;;;;9.30;1.77;;;;;;;-145.69;100.00;52711.75;5092826;28;20202;-81
2022/11/23 01:43:18;;;;;;;5.43;1.40;;;;;;;-145.69;100.00;52684.03;5092826;28;20334;-80
2022/11/23 01:45:56;;;;;;;9.73;1.47;;;;;;;-145.69;100.00;52707.78;5093286;28;20194;-81
2022/11/23 01:48:26;;;;;;;4.23;1.50;;;;;;;-145.69;100.00;52703.81;5092796;28;20232;-80
2022/11/23 01:50:56;;;;;;;10.40;1.70;;;;;;;-145.69;100.00;52697.88;5092353;28;20198;-80
2022/11/23 01:53:23;;;;;;;9.60;1.83;;;;;;;-145.69;100.00;52693.94;5092424;28;20236;-81
2022/11/23 01:55:52;;;;;;;10.60;1.70;;;;;;;-145.69;100.00;52699.88;5092954;28;20230;-81
2022/11/23 01:58:22;;;;;;;8.87;1.50;;;;;;;-145.69;100.00;52705.81;5091827;28;20707;-81
2022/11/23 02:00:49;;;;;;;9.23;1.50;;;;;;;-145.69;100.00;52703.81;5091292;28;20325;-81
2022/11/23 02:03:18;;;;;;;5.40;1.23;;;;;;;-145.69;100.00;52721.66;5073642;28;20194;-81
2022/11/23 02:05:49;;;;;;;3.07;1.37;;;;;;;-145.69;100.00;52713.72;5089185;28;20217;-81
2022/11/23 02:08:17;;;;;;;7.57;1.30;;;;;;;-145.69;100.00;52693.94;5092763;28;20198;-81
2022/11/23 02:10:43;;;;;;;4.47;1.50;;;;;;;-145.69;100.00;52737.50;5092284;28;20194;-81
2022/11/23 02:13:13;;;;;;;6.63;1.57;;;;;;;-145.69;100.00;52729.56;5092705;28;20202;-81
2022/11/23 02:15:41;;;;;;;15.23;1.87;;;;;;;-145.69;100.00;52684.03;5092249;28;20198;-81
2022/11/23 02:18:12;;;;;;;10.88;1.77;;;;;;;-145.69;100.00;52695.91;5092060;28;20456;-81
2022/11/23 02:20:39;;;;;;;7.50;1.70;;;;;;;-145.69;100.00;52697.88;5092847;28;20209;-82
2022/11/23 02:23:16;;;;;;;11.23;1.73;;;;;;;-145.69;100.00;52733.53;5092416;28;20569;-81
2022/11/23 02:25:55;;;;;;;2.50;1.33;;;;;;;-145.69;100.00;52737.50;5092515;28;20209;-82
2022/11/23 02:28:24;;;;;;;4.60;1.40;;;;;;;-145.69;100.00;52705.81;5092781;28;20202;-82
2022/11/23 02:30:55;;;;;;;10.13;1.37;;;;;;;-145.69;100.00;52703.81;5093515;28;20198;-82
2022/11/23 02:33:21;;;;;;;9.43;1.50;;;;;;;-145.69;100.00;52753.34;5092907;28;20234;-81
2022/11/23 02:35:49;;;;;;;12.70;2.13;;;;;;;-145.69;100.00;52719.66;5092078;28;20194;-81
2022/11/23 02:38:17;;;;;;;9.60;1.90;;;;;;;-145.69;100.00;52713.72;5092912;28;20303;-82
2022/11/23 02:40:45;;;;;;;6.17;1.50;;;;;;;-145.69;100.00;52697.88;5093302;28;20217;-82
2022/11/23 02:43:13;;;;;;;6.40;1.60;;;;;;;-145.69;100.00;52757.31;5095737;28;20198;-82
2022/11/23 02:45:46;;;;;;;8.10;1.50;;;;;;;-145.69;100.00;52705.81;5095821;28;20194;-81
2022/11/23 02:48:12;;;;;;;16.03;1.90;;;;;;;-145.69;100.00;52697.88;5075502;28;20209;-81
2022/11/23 02:50:39;;;;;;;7.10;1.70;;;;;;;-145.69;100.00;52725.63;5075779;28;20205;-82
2022/11/23 02:53:05;;;;;;;10.77;1.57;;;;;;;-145.69;100.00;52680.06;5075515;28;20217;-82
2022/11/23 02:55:32;;;;;;;6.07;1.33;;;;;;;-145.69;100.00;52741.47;5082700;28;20200;-81
2022/11/23 02:57:58;;;;;;;6.67;1.70;;;;;;;-145.69;100.00;52737.50;5095586;28;20230;-81
2022/11/23 03:00:26;;;;;;;4.73;1.57;;;;;;;-145.69;100.00;52717.69;5096021;28;20198;-81
2022/11/23 03:02:53;;;;;;;7.13;1.50;;;;;;;-145.69;100.00;52682.03;5095082;28;20202;-81
2022/11/23 03:05:20;;;;;;;10.10;1.80;;;;;;;-145.69;100.00;52701.84;5095571;28;20201;-81
2022/11/23 03:07:46;;;;;;;8.23;1.67;;;;;;;-145.69;100.00;52678.09;5095430;28;20198;-81
2022/11/23 03:10:13;;;;;;;25.00;2.27;;;;;;;-145.69;100.00;52713.72;5095632;28;20256;-81
2022/11/23 03:12:39;;;;;;;15.60;2.10;;;;;;;-145.69;100.00;52682.03;5096011;28;20198;-82
2022/11/23 03:15:07;;;;;;;8.40;1.70;;;;;;;-145.69;100.00;52707.78;5096185;28;20667;-83
2022/11/23 03:17:35;;;;;;;11.00;1.90;;;;;;;-145.69;100.00;52717.69;5095626;28;20625;-82
2022/11/23 03:20:01;;;;;;;3.17;1.10;;;;;;;-145.69;100.00;52731.56;5095874;28;20216;-83
2022/11/23 03:22:28;;;;;;;6.67;1.40;;;;;;;-145.69;100.00;52717.69;5095629;28;20208;-82
2022/11/23 03:24:55;;;;;;;6.97;1.20;;;;;;;-145.69;100.00;52707.78;5095492;28;20682;-82
2022/11/23 03:27:21;;;;;;;11.23;1.90;;;;;;;-145.69;100.00;52701.84;5096143;28;20198;-83
2022/11/23 03:29:48;;;;;;;17.07;1.50;;;;;;;-145.69;100.00;52686.00;5096292;28;20201;-82
2022/11/23 03:32:15;;;;;;;7.60;1.50;;;;;;;-145.69;100.00;52693.94;5096056;28;20205;-82
2022/11/23 03:34:43;;;;;;;12.30;1.63;;;;;;;-145.69;100.00;52721.66;5095758;28;20228;-83
2022/11/23 03:37:09;;;;;;;13.33;1.83;;;;;;;-145.69;100.00;52719.66;5096566;28;20549;-83
2022/11/23 03:39:36;;;;;;;14.37;1.73;;;;;;;-145.69;100.00;52693.94;5096345;28;20230;-82
2022/11/23 03:42:02;;;;;;;9.03;1.67;;;;;;;-145.69;100.00;52678.09;5096824;28;20205;-83
2022/11/23 03:44:29;;;;;;;13.90;1.60;;;;;;;-145.69;100.00;52717.69;5097190;28;20198;-83
2022/11/23 03:46:55;;;;;;;14.93;1.70;;;;;;;-145.69;100.00;52713.72;5096439;28;20206;-81
2022/11/23 03:49:22;;;;;;;10.40;1.60;;;;;;;-145.69;100.00;52725.63;5094499;28;20194;-81
2022/11/23 03:51:50;;;;;;;7.63;1.67;;;;;;;-145.69;100.00;52689.97;5090243;28;20230;-81
2022/11/23 03:54:16;;;;;;;11.93;1.97;;;;;;;-145.69;100.00;52697.88;5094583;28;20659;-81
2022/11/23 03:56:43;;;;;;;4.07;1.50;;;;;;;-145.69;100.00;52709.78;5093833;28;20202;-81
2022/11/23 03:59:09;;;;;;;13.87;1.40;;;;;;;-145.69;100.00;52699.88;5095502;28;20300;-83
2022/11/23 04:01:36;;;;;;;14.67;1.67;;;;;;;-145.69;100.00;52717.69;5095165;28;20289;-82
2022/11/23 04:04:03;;;;;;;13.23;1.53;;;;;;;-145.69;100.00;52717.69;5094648;28;20285;-82
2022/11/23 04:06:29;;;;;;;18.20;2.27;;;;;;;-145.69;100.00;52693.94;5095002;28;20205;-83
2022/11/23 04:08:57;;;;;;;13.07;1.57;;;;;;;-145.69;100.00;52693.94;5095821;28;20201;-82
2022/11/23 04:11:23;;;;;;;10.10;1.60;;;;;;;-145.69;100.00;52687.97;5095862;28;20194;-82
2022/11/23 04:13:50;;;;;;;18.07;2.30;;;;;;;-145.69;100.00;52719.66;5095649;28;20205;-82
2022/11/23 04:16:17;;;;;;;12.60;1.47;;;;;;;-145.69;100.00;52715.72;5096321;28;20656;-81
2022/11/23 04:18:43;;;;;;;5.53;1.50;;;;;;;-145.69;100.00;52678.09;5094203;28;20226;-82
2022/11/23 04:21:10;;;;;;;8.53;1.37;;;;;;;-145.69;100.00;52713.72;5094311;28;20202;-81
2022/11/23 04:23:36;;;;;;;10.77;1.50;;;;;;;-145.69;100.00;52699.88;5096213;28;20710;-82
2022/11/23 04:26:05;;;;;;;5.27;1.33;;;;;;;-145.69;100.00;52713.72;5097614;28;20198;-82
2022/11/23 04:28:32;;;;;;;11.23;1.40;;;;;;;-145.69;100.00;52676.09;5097454;28;20202;-83
2022/11/23 04:30:59;;;;;;;9.77;1.40;;;;;;;-145.69;100.00;52684.03;5096597;28;20210;-81
2022/11/23 04:33:25;;;;;;;6.97;1.90;;;;;;;-145.69;100.00;52705.81;5095698;28;20222;-83
2022/11/23 04:35:52;;;;;;;10.60;1.60;;;;;;;-145.69;100.00;52678.09;5095699;28;20225;-83
2022/11/23 04:38:18;;;;;;;4.50;1.50;;;;;;;-145.69;100.00;52684.03;5094718;28;20716;-83
2022/11/23 04:40:47;;;;;;;18.13;1.50;;;;;;;-145.69;100.00;52678.09;5094494;28;20648;-82
2022/11/23 04:43:15;;;;;;;5.50;1.00;;;;;;;-145.69;100.00;52707.78;5094826;28;20664;-82
2022/11/23 04:45:42;;;;;;;4.90;1.30;;;;;;;-145.69;100.00;52693.94;5095255;28;20198;-83
2022/11/23 04:48:08;;;;;;;9.30;1.17;;;;;;;-145.69;100.00;52693.94;5094638;28;20214;-83
2022/11/23 04:50:36;;;;;;;4.80;1.37;;;;;;;-145.69;100.00;52745.41;5095317;28;20201;-83
2022/11/23 04:53:03;;;;;;;12.13;1.63;;;;;;;-145.69;100.00;52699.88;5095404;28;20202;-83
2022/11/23 04:55:29;;;;;;;8.00;1.50;;;;;;;-145.69;100.00;52729.56;5094820;28;20187;-83
2022/11/23 04:57:56;;;;;;;11.20;1.83;;;;;;;-145.69;100.00;52699.88;5095557;28;20222;-83
2022/11/23 05:00:24;;;;;;;3.30;1.30;;;;;;;-145.69;100.00;52686.00;5095600;28;20198;-83
2022/11/23 05:02:50;;;;;;;11.80;1.60;;;;;;;-145.69;100.00;52686.00;5095584;28;20213;-82
2022/11/23 05:05:17;;;;;;;7.63;1.37;;;;;;;-145.69;100.00;52711.75;5094799;28;20193;-83
2022/11/23 05:07:44;;;;;;;9.20;1.97;;;;;;;-145.69;100.00;52701.84;5094835;28;20209;-83
2022/11/23 05:10:11;;;;;;;8.13;1.37;;;;;;;-145.69;100.00;52711.75;5095289;28;20206;-83
2022/11/23 05:12:37;;;;;;;13.40;1.50;;;;;;;-145.69;100.00;52666.19;5094779;28;20675;-82
2022/11/23 05:15:04;;;;;;;8.40;1.83;;;;;;;-145.69;100.00;52687.97;5095210;28;20556;-83
2022/11/23 05:17:33;;;;;;;10.43;1.47;;;;;;;-145.69;100.00;52693.94;5095379;28;20222;-83
2022/11/23 05:19:59;;;;;;;7.57;1.30;;;;;;;-145.69;100.00;52658.28;5095270;28;20198;-82
2022/11/23 05:22:26;;;;;;;4.33;1.20;;;;;;;-145.69;100.00;52709.78;5094573;28;20190;-83
2022/11/23 05:24:52;;;;;;;4.70;1.27;;;;;;;-145.69;100.00;52693.94;5094490;28;20627;-83
2022/11/23 05:27:19;;;;;;;11.93;1.57;;;;;;;-145.69;100.00;52725.63;5094233;28;20205;-83
2022/11/23 05:29:45;;;;;;;6.80;1.70;;;;;;;-145.69;100.00;52711.75;5095198;28;20254;-82
2022/11/23 05:32:12;;;;;;;5.17;1.50;;;;;;;-145.69;100.00;52693.94;5096672;28;20201;-83
2022/11/23 05:34:40;;;;;;;7.57;1.97;;;;;;;-145.69;100.00;52697.88;5098710;28;20648;-82
2022/11/23 05:37:06;;;;;;;9.03;1.83;;;;;;;-145.69;100.00;52741.47;5098698;28;20202;-83
2022/11/23 05:39:33;;;;;;;6.67;1.80;;;;;;;-145.69;100.00;52713.72;5098172;28;20202;-83
2022/11/23 05:41:59;;;;;;;7.80;1.47;;;;;;;-145.69;100.00;52721.66;5095728;28;20204;-84
2022/11/23 05:44:26;;;;;;;5.83;1.60;;;;;;;-145.69;100.00;52693.94;5094670;28;20194;-83
2022/11/23 05:46:52;;;;;;;9.30;2.00;;;;;;;-145.69;100.00;52707.78;5096156;28;20198;-83
2022/11/23 05:49:19;;;;;;;6.83;1.70;;;;;;;-145.69;100.00;52729.56;5094669;28;20194;-82
2022/11/23 05:51:47;;;;;;;9.43;2.13;;;;;;;-145.69;100.00;52709.78;5095557;28;20204;-83
2022/11/23 05:54:13;;;;;;;13.53;2.53;;;;;;;-145.69;100.00;52719.66;5075482;28;20210;-83
2022/11/23 05:56:40;;;;;;;4.67;1.67;;;;;;;-145.69;100.00;52717.69;5080408;28;20216;-83
2022/11/23 05:59:07;;;;;;;10.63;1.60;;;;;;;-145.69;100.00;52682.03;5096067;28;20312;-83
2022/11/23 06:01:33;;;;;;;17.17;1.83;;;;;;;-145.69;100.00;52709.78;5095856;28;20209;-82
2022/11/23 06:04:01;;;;;;;9.90;1.53;;;;;;;-145.69;100.00;52727.59;5095869;28;20205;-83
2022/11/23 06:06:27;;;;;;;17.00;1.57;;;;;;;-145.69;100.00;52721.66;5095203;28;20198;-83
2022/11/23 06:08:55;;;;;;;7.57;1.67;;;;;;;-145.69;100.00;52699.88;5094960;28;20208;-80
2022/11/23 06:11:22;;;;;;;7.97;2.30;;;;;;;-145.69;100.00;52701.84;5094941;28;20201;-82
2022/11/23 06:13:49;;;;;;;9.43;1.93;;;;;;;-145.69;100.00;52721.66;5094964;28;20251;-83
2022/11/23 06:16:16;;;;;;;11.40;2.03;;;;;;;-145.69;100.00;52717.69;5096977;28;20194;-82
2022/11/23 06:18:42;;;;;;;15.27;2.73;;;;;;;-145.69;100.00;52713.72;5099605;28;20275;-82
2022/11/23 06:21:09;;;;;;;16.33;1.80;;;;;;;-145.69;100.00;52717.69;5099617;28;20653;-83
2022/11/23 06:23:36;;;;;;;6.37;1.70;;;;;;;-145.69;100.00;52737.50;5099012;28;20637;-82
2022/11/23 06:26:04;;;;;;;12.10;2.70;;;;;;;-145.69;100.00;52721.66;5099252;28;20205;-83
2022/11/23 06:28:30;;;;;;;10.43;1.87;;;;;;;-145.69;100.00;52737.50;5099874;28;20283;-84
2022/11/23 06:31:01;;;;;;;9.80;2.20;;;;;;;-145.69;100.00;52735.50;5098649;28;20564;-82
2022/11/23 06:33:28;;;;;;;10.80;2.30;;;;;;;-145.69;100.00;52733.53;5097363;28;20240;-83
2022/11/23 06:35:56;;;;;;;8.80;2.40;;;;;;;-145.69;100.00;52686.00;5097663;28;20226;-83
2022/11/23 06:38:22;;;;;;;8.13;2.00;;;;;;;-145.69;100.00;52721.66;5097167;28;20688;-84
2022/11/23 06:40:49;;;;;;;7.27;2.33;;;;;;;-145.69;100.00;52699.88;5097951;28;20217;-82
2022/11/23 06:43:17;;;;;;;8.33;2.50;;;;;;;-145.69;100.00;52709.78;5096629;28;20207;-82
2022/11/23 06:45:43;;;;;;;10.63;2.23;;;;;;;-145.69;100.00;52717.69;5096701;28;20190;-82
2022/11/23 06:48:10;;;;;;;12.40;2.27;;;;;;;-145.69;100.00;52717.69;5098149;28;20567;-83
2022/11/23 06:50:37;;;;;;;5.67;2.10;;;;;;;-145.69;100.00;52687.97;5101477;28;20560;-82
2022/11/23 06:53:03;;;;;;;12.93;3.00;;;;;;;-145.69;100.00;52725.63;5100512;28;20205;-82
2022/11/23 06:55:30;;;;;;;10.07;2.90;;;;;;;-145.69;100.00;52749.38;5103322;28;20186;-83
2022/11/23 06:57:57;;;;;;;8.17;2.80;;;;;;;-145.69;100.00;52697.88;5102442;28;20308;-83
2022/11/23 07:00:25;;;;;;;10.87;2.83;;;;;;;-145.69;100.00;52745.41;5100650;28;20247;-83
2022/11/23 07:02:52;;;;;;;15.67;3.40;;;;;;;-145.69;100.00;52711.75;5104186;28;20309;-83
2022/11/23 07:05:19;;;;;;;9.63;2.57;;;;;;;-145.69;100.00;52711.75;5103898;28;20206;-83
2022/11/23 07:07:46;;;;;;;8.07;2.23;;;;;;;-145.69;100.00;52739.47;5103136;28;20190;-83
2022/11/23 07:10:13;;;;;;;13.00;2.87;;;;;;;-145.69;100.00;52674.13;5103337;28;20198;-83
2022/11/23 07:12:40;;;;;;;8.87;2.07;;;;;;;-145.69;100.00;52729.56;5099940;28;20198;-83
2022/11/23 07:15:08;;;;;;;19.37;2.53;;;;;;;-145.69;100.00;52684.03;5101734;28;20217;-83
2022/11/23 07:17:40;;;;;;;9.90;2.33;;;;;;;-145.69;100.00;52699.88;5100315;28;20201;-83
2022/11/23 07:20:08;;;;;;;5.80;2.33;;;;;;;-145.69;100.00;52721.66;5096828;28;20891;-83
2022/11/23 07:22:35;;;;;;;12.77;2.40;;;;;;;-145.69;100.00;52723.63;5099448;28;20285;-83
2022/11/23 07:25:02;;;;;;;7.33;2.43;;;;;;;-145.69;100.00;52745.41;5096625;28;20306;-84
2022/11/23 07:27:28;;;;;;;6.97;2.10;;;;;;;-145.69;100.00;52733.53;5095830;28;20190;-83
2022/11/23 07:29:55;;;;;;;8.83;2.50;;;;;;;-145.69;100.00;52705.81;5096730;28;20560;-82
2022/11/23 07:32:21;;;;;;;6.77;2.13;;;;;;;-145.69;100.00;52721.66;5099877;28;20201;-82
2022/11/23 07:34:49;;;;;;;11.47;2.53;;;;;;;-145.69;100.00;52703.81;5089912;28;20191;-82
2022/11/23 07:37:16;;;;;;;10.73;2.60;;;;;;;-145.69;100.00;52741.47;5077562;28;20198;-83
2022/11/23 07:39:42;;;;;;;7.33;2.57;;;;;;;-145.69;100.00;52703.81;5077714;28;20226;-83
2022/11/23 07:42:09;;;;;;;18.33;3.77;;;;;;;-145.69;100.00;52727.59;5077026;28;20231;-82
2022/11/23 07:44:36;;;;;;;16.23;3.30;;;;;;;-145.69;100.00;52705.81;5082592;28;20195;-83
2022/11/23 07:47:03;;;;;;;9.03;2.40;;;;;;;-145.69;100.00;52745.41;5085172;28;20260;-82
2022/11/23 07:49:30;;;;;;;9.90;2.67;;;;;;;-145.69;100.00;52721.66;5083781;28;20191;-83
2022/11/23 07:51:58;;;;;;;6.47;2.37;;;;;;;-145.69;100.00;52701.84;5100672;28;20210;-82
2022/11/23 07:54:24;;;;;;;10.33;2.33;;;;;;;-145.69;100.00;52676.09;5099298;28;20293;-82
2022/11/23 07:56:51;;;;;;;11.17;3.10;;;;;;;-145.69;100.00;52745.41;5099080;28;20198;-83
2022/11/23 07:59:17;;;;;;;11.60;2.70;;;;;;;-145.69;100.00;52721.66;5098634;28;20232;-83
2022/11/23 08:01:44;;;;;;;10.67;2.53;;;;;;;-145.69;100.00;52719.66;5099160;28;20198;-83
2022/11/23 08:04:10;;;;;;;10.37;2.90;;;;;;;-145.69;100.00;52705.81;5099664;28;20292;-83
2022/11/23 08:06:37;;;;;;;8.93;3.17;;;;;;;-145.69;100.00;52697.88;5100141;28;20197;-82
2022/11/23 08:09:05;;;;;;;9.57;2.80;;;;;;;-145.69;100.00;52725.63;5099644;28;20229;-83
2022/11/23 08:11:31;;;;;;;13.27;2.57;;;;;;;-145.69;100.00;52743.44;5098776;28;20289;-82
2022/11/23 08:13:58;;;;;;;10.33;2.80;;;;;;;-145.69;100.00;52727.59;5100883;28;20198;-83
2022/11/23 08:16:24;;;;;;;14.23;3.30;;;;;;;-145.69;100.00;52733.53;5097986;28;20202;-82
2022/11/23 08:18:51;;;;;;;10.37;2.93;;;;;;;-145.69;100.00;52751.34;5098661;28;20695;-83
2022/11/23 08:21:18;;;;;;;11.63;3.73;;;;;;;-145.69;100.00;52733.53;5099979;28;20652;-82
2022/11/23 08:23:44;;;;;;;8.03;3.10;;;;;;;-145.69;100.00;52715.72;5094906;28;20889;-79
2022/11/23 08:26:12;;;;;;;8.30;2.87;;;;;;;-145.69;100.00;52695.91;5096474;28;20196;-83
2022/11/23 08:28:39;;;;;;;14.47;3.10;;;;;;;-145.69;100.00;52703.81;5099085;28;20202;-83
2022/11/23 08:31:07;;;;;;;10.60;3.17;;;;;;;-145.69;100.00;52719.66;5100284;28;20220;-83
2022/11/23 08:33:33;;;;;;;13.80;3.30;;;;;;;-145.69;100.00;52701.84;5100136;28;20233;-83
2022/11/23 08:36:05;;;;;;;8.03;2.90;;;;;;;-145.69;100.00;52719.66;5100086;28;20747;-83
2022/11/23 08:38:31;;;;;;;12.77;3.30;;;;;;;-145.69;100.00;52743.44;5100519;28;20226;-83
2022/11/23 08:40:58;;;;;;;19.30;3.93;;;;;;;-145.69;100.00;52729.56;5097730;28;20198;-82
2022/11/23 08:43:27;;;;;;;16.03;4.00;;;;;;;-145.69;100.00;52713.72;5095113;28;20560;-82
2022/11/23 08:45:57;;;;;;;11.50;3.90;;;;;;;-145.69;100.00;52731.56;5096100;28;20270;-82
2022/11/23 08:48:24;;;;;;;13.43;3.93;;;;;;;-145.69;100.00;52755.31;5096112;28;20193;-82
2022/11/23 08:50:51;;;;;;;8.70;4.00;;;;;;;-145.69;100.00;52715.72;5095457;28;20199;-82
2022/11/23 08:53:18;;;;;;;7.00;3.50;;;;;;;-145.69;100.00;52697.88;5093887;28;20190;-82
2022/11/23 08:55:45;;;;;;;10.07;3.90;;;;;;;-145.69;100.00;52721.66;5094258;28;20560;-82
2022/11/23 08:58:12;;;;;;;14.00;3.70;;;;;;;-145.69;100.00;52719.66;5094227;28;20217;-81
2022/11/23 09:00:40;;;;;;;8.63;3.23;;;;;;;-145.69;100.00;52741.47;5094008;28;20202;-83
2022/11/23 09:03:09;;;;;;;9.80;3.30;;;;;;;-145.69;100.00;52695.91;5094082;28;20199;-82
2022/11/23 09:05:38;;;;;;;6.73;3.03;;;;;;;-145.69;100.00;52709.78;5093646;28;20249;-81
2022/11/23 09:08:05;;;;;;;8.00;3.10;;;;;;;-145.69;100.00;52731.56;5093424;28;20250;-79
2022/11/23 09:10:32;;;;;;;11.90;2.73;;;;;;;-145.69;100.00;52686.00;5093085;28;20198;-81
2022/11/23 09:12:58;;;;;;;6.70;3.10;;;;;;;-145.69;100.00;52731.56;5092700;28;20206;-79
2022/11/23 09:15:25;;;;;;;6.60;2.60;;;;;;;-145.69;100.00;52727.59;5092780;28;20675;-80
2022/11/23 09:17:53;;;;;;;7.77;3.13;;;;;;;-145.69;100.00;52725.63;5092982;28;20289;-80
2022/11/23 09:20:22;;;;;;;7.97;3.50;;;;;;;-145.69;100.00;52693.94;5093195;28;20221;-81
2022/11/23 09:22:51;;;;;;;6.40;2.30;;;;;;;-145.69;100.00;52725.63;5093222;28;20198;-81
2022/11/23 09:25:21;;;;;;;5.30;2.67;;;;;;;-145.69;100.00;52686.00;5090825;28;20222;-84
2022/11/23 09:27:48;;;;;;;6.43;2.50;;;;;;;-145.69;100.00;52701.84;5093511;28;20259;-82
2022/11/23 09:30:16;;;;;;;7.10;2.53;;;;;;;-145.69;100.00;52705.81;5092091;28;20591;-81
2022/11/23 09:32:42;;;;;;;6.07;2.37;;;;;;;-145.69;100.00;52680.06;5092774;28;20200;-81
2022/11/23 09:35:10;;;;;;;5.47;2.13;;;;;;;-145.69;100.00;52691.94;5094377;28;20209;-81
2022/11/23 09:37:37;;;;;;;6.10;2.07;;;;;;;-145.69;100.00;52697.88;5093681;28;20715;-83
2022/11/23 09:40:06;;;;;;;7.33;1.93;;;;;;;-145.69;100.00;52721.66;5094068;28;20237;-81
2022/11/23 09:43:23;;;;;;;3.30;2.13;;;;;;;-145.69;100.00;52713.72;5094437;28;20649;-81
2022/11/23 09:45:54;;;;;;;6.23;1.83;;;;;;;-145.69;100.00;52701.84;5051358;28;20194;-81
2022/11/23 09:48:34;;;;;;;9.60;2.07;;;;;;;-145.69;100.00;52701.84;5093169;28;20194;-81
2022/11/23 09:51:06;;;;;;;6.23;2.23;;;;;;;-145.69;100.00;52682.03;5095798;28;20202;-81
2022/11/23 09:53:38;;;;;;;9.40;2.17;;;;;;;-145.69;100.00;52676.09;5093903;28;20194;-81
2022/11/23 09:56:13;;;;;;;4.73;2.07;;;;;;;-145.69;100.00;52686.00;5096451;28;20209;-80
2022/11/23 09:58:40;;;;;;;4.63;1.90;;;;;;;-145.69;100.00;52682.03;5097089;28;20228;-80
2022/11/23 10:01:11;;;;;;;3.90;1.50;;;;;;;-145.69;100.00;52658.28;5096841;28;20205;-81
2022/11/23 10:03:43;;;;;;;3.87;1.13;;;;;;;-145.69;100.00;52674.13;5096950;28;20209;-81
2022/11/23 10:06:18;;;;;;;4.13;1.33;;;;;;;-145.69;100.00;52695.91;5096690;28;20256;-81
2022/11/23 10:08:56;;;;;;;4.37;1.40;;;;;;;-145.69;100.00;52658.28;5096190;28;20202;-81
2022/11/23 10:11:36;;;;;;;10.33;1.40;;;;;;;-145.69;100.00;52660.25;5096946;28;20206;-81
2022/11/23 10:14:14;;;;;;;8.73;1.63;;;;;;;-145.69;100.00;52666.19;5096913;28;20251;-81
2022/11/23 10:16:51;;;;;;;4.67;1.73;;;;;;;-145.69;100.00;52680.06;5096090;28;20202;-81
2022/11/23 10:19:31;;;;;;;8.30;1.50;;;;;;;-145.69;100.00;52648.38;5096080;28;20244;-81
2022/11/23 10:22:09;;;;;;;7.77;1.23;;;;;;;-145.69;100.00;52644.41;5096706;28;20236;-81
2022/11/23 10:24:42;;;;;;;5.07;1.30;;;;;;;-145.69;100.00;52664.22;5096444;28;20229;-81
2022/11/23 10:27:15;;;;;;;6.60;2.00;;;;;;;-145.69;100.00;52695.91;5096182;28;20197;-81
2022/11/23 10:29:44;;;;;;;8.07;1.40;;;;;;;-145.69;100.00;52652.34;5096241;28;20316;-81
2022/11/23 10:32:29;;;;;;;4.23;1.10;;;;;;;-145.69;100.00;52668.19;5095372;28;20196;-81
2022/11/23 10:35:02;;;;;;;4.43;1.17;;;;;;;-145.69;100.00;52654.31;5096135;28;20196;-81
2022/11/23 10:37:30;;;;;;;5.57;1.30;;;;;;;-145.69;100.00;52646.41;5096440;28;20789;-80
2022/11/23 10:39:57;;;;;;;2.50;1.00;;;;;;;-145.69;100.00;52654.31;5095908;28;20653;-80
2022/11/23 10:42:30;;;;;;;6.23;1.47;;;;;;;-145.69;100.00;52626.59;5096256;28;20204;-80
2022/11/23 10:44:58;;;;;;;4.37;1.23;;;;;;;-145.69;100.00;52654.31;5095522;28;20209;-80
2022/11/23 10:47:39;;;;;;;4.33;1.20;;;;;;;-145.69;100.00;52638.47;5096063;28;20198;-79
2022/11/23 10:50:25;;;;;;;6.27;1.30;;;;;;;-145.69;100.00;52668.19;5095866;28;20205;-79
2022/11/23 10:52:55;;;;;;;4.03;1.77;;;;;;;-145.69;100.00;52644.41;5096166;28;20202;-80
2022/11/23 10:55:28;;;;;;;4.80;2.00;;;;;;;-145.69;100.00;52636.50;5094393;28;20194;-80
2022/11/23 10:57:55;;;;;;;1.50;1.20;;;;;;;-145.69;100.00;52646.41;5095869;28;20193;-80
2022/11/23 11:00:23;;;;;;;3.67;1.60;;;;;;;-145.69;100.00;52644.41;5095419;28;20229;-80
2022/11/23 11:02:52;;;;;;;3.60;1.20;;;;;;;-145.69;100.00;52634.50;5094814;28;20289;-79
2022/11/23 11:05:28;;;;;;;4.67;1.60;;;;;;;-145.69;100.00;52680.06;5095498;28;20286;-79
2022/11/23 11:07:58;;;;;;;6.40;1.40;;;;;;;-145.69;100.00;52656.28;5095854;28;20193;-80
2022/11/23 11:10:40;;;;;;;5.53;1.63;;;;;;;-145.69;100.00;52646.41;5095386;28;20736;-80